sensor_id;sensor_type;location;lat;lon;timestamp;pressure;altitude;pressure_sealevel;temperature;humidity
79075;BME280;68476;42.710;23.388;2023-07-08T00:01:21;95870.50;;;17.55;81.03
79075;BME280;68476;42.710;23.388;2023-07-08T00:03:47;95869.09;;;17.53;80.42
79075;BME280;68476;42.710;23.388;2023-07-08T00:06:20;95858.88;;;17.48;80.99
79075;BME280;68476;42.710;23.388;2023-07-08T00:08:46;95850.59;;;17.43;81.03
79075;BME280;68476;42.710;23.388;2023-07-08T00:11:13;95861.03;;;17.41;81.41
79075;BME280;68476;42.710;23.388;2023-07-08T00:13:39;95851.41;;;17.44;80.95
79075;BME280;68476;42.710;23.388;2023-07-08T00:16:04;95849.19;;;17.40;81.02
79075;BME280;68476;42.710;23.388;2023-07-08T00:18:33;95853.34;;;17.43;80.42
79075;BME280;68476;42.710;23.388;2023-07-08T00:20:58;95843.66;;;17.40;80.69
79075;BME280;68476;42.710;23.388;2023-07-08T00:23:24;95843.38;;;17.37;81.18
79075;BME280;68476;42.710;23.388;2023-07-08T00:25:50;95839.75;;;17.31;81.07
79075;BME280;68476;42.710;23.388;2023-07-08T00:28:20;95846.06;;;17.27;81.61
79075;BME280;68476;42.710;23.388;2023-07-08T00:30:49;95840.00;;;17.24;81.94
79075;BME280;68476;42.710;23.388;2023-07-08T00:33:14;95846.59;;;17.23;81.57
79075;BME280;68476;42.710;23.388;2023-07-08T00:35:41;95849.59;;;17.17;82.28
79075;BME280;68476;42.710;23.388;2023-07-08T00:38:23;95838.53;;;17.12;82.27
79075;BME280;68476;42.710;23.388;2023-07-08T00:41:00;95844.63;;;17.14;81.87
79075;BME280;68476;42.710;23.388;2023-07-08T00:43:52;95835.22;;;17.09;82.73
79075;BME280;68476;42.710;23.388;2023-07-08T00:51:23;95832.97;;;17.06;82.54
79075;BME280;68476;42.710;23.388;2023-07-08T00:53:49;95824.69;;;17.01;82.65
79075;BME280;68476;42.710;23.388;2023-07-08T00:56:23;95816.69;;;17.00;82.97
79075;BME280;68476;42.710;23.388;2023-07-08T00:58:59;95817.81;;;16.99;82.92
79075;BME280;68476;42.710;23.388;2023-07-08T01:01:27;95807.59;;;16.99;82.76
79075;BME280;68476;42.710;23.388;2023-07-08T01:04:13;95811.44;;;16.98;82.60
79075;BME280;68476;42.710;23.388;2023-07-08T01:06:42;95809.69;;;16.87;83.10
79075;BME280;68476;42.710;23.388;2023-07-08T01:09:11;95804.81;;;16.94;82.87
79075;BME280;68476;42.710;23.388;2023-07-08T01:11:40;95811.06;;;16.89;83.35
79075;BME280;68476;42.710;23.388;2023-07-08T01:14:08;95806.94;;;16.87;83.53
79075;BME280;68476;42.710;23.388;2023-07-08T01:16:35;95804.44;;;16.85;83.12
79075;BME280;68476;42.710;23.388;2023-07-08T01:19:02;95810.25;;;16.89;82.62
79075;BME280;68476;42.710;23.388;2023-07-08T01:21:36;95809.97;;;16.85;83.06
79075;BME280;68476;42.710;23.388;2023-07-08T01:24:06;95805.84;;;16.88;82.82
79075;BME280;68476;42.710;23.388;2023-07-08T01:26:34;95800.28;;;16.83;82.89
79075;BME280;68476;42.710;23.388;2023-07-08T01:29:01;95804.19;;;16.87;82.99
79075;BME280;68476;42.710;23.388;2023-07-08T01:31:27;95800.28;;;16.83;82.81
79075;BME280;68476;42.710;23.388;2023-07-08T01:33:53;95800.81;;;16.79;83.20
79075;BME280;68476;42.710;23.388;2023-07-08T01:36:19;95801.91;;;16.78;82.90
79075;BME280;68476;42.710;23.388;2023-07-08T01:38:45;95806.63;;;16.83;82.37
79075;BME280;68476;42.710;23.388;2023-07-08T01:41:13;95818.78;;;16.87;82.21
79075;BME280;68476;42.710;23.388;2023-07-08T01:43:39;95822.16;;;16.94;81.73
79075;BME280;68476;42.710;23.388;2023-07-08T01:46:12;95808.00;;;16.81;81.79
79075;BME280;68476;42.710;23.388;2023-07-08T01:48:41;95806.41;;;16.90;81.91
79075;BME280;68476;42.710;23.388;2023-07-08T01:51:09;95810.25;;;16.89;81.96
79075;BME280;68476;42.710;23.388;2023-07-08T01:53:37;95803.13;;;16.93;81.65
79075;BME280;68476;42.710;23.388;2023-07-08T01:56:04;95795.34;;;16.85;82.28
79075;BME280;68476;42.710;23.388;2023-07-08T01:58:30;95794.53;;;16.84;81.87
79075;BME280;68476;42.710;23.388;2023-07-08T02:00:56;95791.56;;;16.91;81.31
79075;BME280;68476;42.710;23.388;2023-07-08T02:03:21;95796.44;;;16.84;82.06
79075;BME280;68476;42.710;23.388;2023-07-08T02:05:47;95791.78;;;16.84;81.88
79075;BME280;68476;42.710;23.388;2023-07-08T02:08:13;95790.94;;;16.84;81.75
79075;BME280;68476;42.710;23.388;2023-07-08T02:10:39;95801.19;;;16.93;81.33
79075;BME280;68476;42.710;23.388;2023-07-08T02:13:05;95798.41;;;16.88;81.07
79075;BME280;68476;42.710;23.388;2023-07-08T02:15:31;95810.25;;;16.89;81.40
79075;BME280;68476;42.710;23.388;2023-07-08T02:17:57;95811.63;;;16.91;81.30
79075;BME280;68476;42.710;23.388;2023-07-08T02:20:23;95814.91;;;16.88;81.28
79075;BME280;68476;42.710;23.388;2023-07-08T02:22:48;95812.72;;;16.85;81.68
79075;BME280;68476;42.710;23.388;2023-07-08T02:25:14;95811.00;;;16.79;81.77
79075;BME280;68476;42.710;23.388;2023-07-08T02:27:41;95822.06;;;16.84;81.63
79075;BME280;68476;42.710;23.388;2023-07-08T02:30:07;95828.69;;;16.88;81.12
79075;BME280;68476;42.710;23.388;2023-07-08T02:32:33;95825.59;;;16.79;81.81
79075;BME280;68476;42.710;23.388;2023-07-08T02:35:07;95829.44;;;16.78;81.97
79075;BME280;68476;42.710;23.388;2023-07-08T02:37:33;95850.00;;;16.71;82.34
79075;BME280;68476;42.710;23.388;2023-07-08T02:39:58;95829.59;;;16.67;82.64
79075;BME280;68476;42.710;23.388;2023-07-08T02:42:24;95838.06;;;16.60;82.81
79075;BME280;68476;42.710;23.388;2023-07-08T02:44:49;95836.66;;;16.57;82.55
79075;BME280;68476;42.710;23.388;2023-07-08T02:47:14;95839.72;;;16.61;82.67
79075;BME280;68476;42.710;23.388;2023-07-08T02:49:40;95841.16;;;16.63;82.56
79075;BME280;68476;42.710;23.388;2023-07-08T02:52:05;95836.97;;;16.61;82.29
79075;BME280;68476;42.710;23.388;2023-07-08T02:54:31;95839.44;;;16.57;82.61
79075;BME280;68476;42.710;23.388;2023-07-08T02:56:56;95848.28;;;16.64;82.48
79075;BME280;68476;42.710;23.388;2023-07-08T02:59:22;95870.06;;;16.66;82.51
79075;BME280;68476;42.710;23.388;2023-07-08T03:01:47;95858.78;;;16.68;82.15
79075;BME280;68476;42.710;23.388;2023-07-08T03:04:13;95865.38;;;16.67;82.36
79075;BME280;68476;42.710;23.388;2023-07-08T03:06:42;95857.97;;;16.67;82.33
79075;BME280;68476;42.710;23.388;2023-07-08T03:09:09;95865.06;;;16.63;82.69
79075;BME280;68476;42.710;23.388;2023-07-08T03:11:35;95857.88;;;16.57;83.11
79075;BME280;68476;42.710;23.388;2023-07-08T03:14:01;95857.53;;;16.53;82.93
79075;BME280;68476;42.710;23.388;2023-07-08T03:16:27;95861.06;;;16.48;83.52
79075;BME280;68476;42.710;23.388;2023-07-08T03:18:52;95859.41;;;16.47;83.22
79075;BME280;68476;42.710;23.388;2023-07-08T03:21:18;95866.56;;;16.48;83.41
79075;BME280;68476;42.710;23.388;2023-07-08T03:23:44;95864.91;;;16.47;83.34
79075;BME280;68476;42.710;23.388;2023-07-08T03:26:14;95861.91;;;16.49;83.19
79075;BME280;68476;42.710;23.388;2023-07-08T03:28:40;95859.78;;;16.56;83.25
79075;BME280;68476;42.710;23.388;2023-07-08T03:31:08;95850.41;;;16.52;83.46
79075;BME280;68476;42.710;23.388;2023-07-08T03:33:34;95852.66;;;16.60;82.86
79075;BME280;68476;42.710;23.388;2023-07-08T03:35:59;95854.56;;;16.60;82.80
79075;BME280;68476;42.710;23.388;2023-07-08T03:38:24;95849.72;;;16.67;82.49
79075;BME280;68476;42.710;23.388;2023-07-08T03:40:50;95840.91;;;16.70;82.35
79075;BME280;68476;42.710;23.388;2023-07-08T03:43:15;95844.22;;;16.72;82.47
79075;BME280;68476;42.710;23.388;2023-07-08T03:45:41;95843.13;;;16.73;82.02
79075;BME280;68476;42.710;23.388;2023-07-08T03:48:09;95844.00;;;16.74;82.04
79075;BME280;68476;42.710;23.388;2023-07-08T03:50:35;95837.63;;;16.73;82.06
79075;BME280;68476;42.710;23.388;2023-07-08T03:53:00;95849.00;;;16.82;81.57
79075;BME280;68476;42.710;23.388;2023-07-08T03:55:26;95846.81;;;16.84;81.55
79075;BME280;68476;42.710;23.388;2023-07-08T03:57:52;95852.56;;;16.83;81.80
79075;BME280;68476;42.710;23.388;2023-07-08T04:00:17;95856.78;;;16.90;81.55
79075;BME280;68476;42.710;23.388;2023-07-08T04:02:44;95853.25;;;16.95;81.44
79075;BME280;68476;42.710;23.388;2023-07-08T04:05:22;95845.25;;;16.93;81.01
79075;BME280;68476;42.710;23.388;2023-07-08T04:07:48;95839.50;;;16.95;80.98
79075;BME280;68476;42.710;23.388;2023-07-08T04:10:15;95842.88;;;17.02;80.72
79075;BME280;68476;42.710;23.388;2023-07-08T04:12:42;95852.53;;;17.05;80.51
79075;BME280;68476;42.710;23.388;2023-07-08T04:15:08;95850.38;;;17.12;80.80
79075;BME280;68476;42.710;23.388;2023-07-08T04:17:46;95864.94;;;17.07;80.82
79075;BME280;68476;42.710;23.388;2023-07-08T04:20:15;95857.72;;;17.01;80.76
79075;BME280;68476;42.710;23.388;2023-07-08T04:22:41;95849.25;;;17.08;80.80
79075;BME280;68476;42.710;23.388;2023-07-08T04:25:06;95855.28;;;17.05;80.79
79075;BME280;68476;42.710;23.388;2023-07-08T04:27:32;95845.41;;;17.09;80.19
79075;BME280;68476;42.710;23.388;2023-07-08T04:29:58;95848.75;;;17.16;79.94
79075;BME280;68476;42.710;23.388;2023-07-08T04:32:23;95852.41;;;17.27;79.54
79075;BME280;68476;42.710;23.388;2023-07-08T04:34:50;95857.94;;;17.32;79.23
79075;BME280;68476;42.710;23.388;2023-07-08T04:37:16;95859.09;;;17.36;79.23
79075;BME280;68476;42.710;23.388;2023-07-08T04:39:41;95853.06;;;17.39;79.51
79075;BME280;68476;42.710;23.388;2023-07-08T04:42:07;95850.88;;;17.47;79.30
79075;BME280;68476;42.710;23.388;2023-07-08T04:44:32;95856.44;;;17.52;78.52
79075;BME280;68476;42.710;23.388;2023-07-08T04:46:58;95864.16;;;17.55;78.26
79075;BME280;68476;42.710;23.388;2023-07-08T04:49:24;95852.94;;;17.67;78.38
79075;BME280;68476;42.710;23.388;2023-07-08T04:51:51;95854.03;;;17.66;78.31
79075;BME280;68476;42.710;23.388;2023-07-08T04:54:17;95859.06;;;17.84;77.50
79075;BME280;68476;42.710;23.388;2023-07-08T04:56:46;95858.25;;;17.84;77.25
79075;BME280;68476;42.710;23.388;2023-07-08T04:59:20;95858.94;;;18.07;77.05
79075;BME280;68476;42.710;23.388;2023-07-08T05:01:45;95856.75;;;18.14;76.28
79075;BME280;68476;42.710;23.388;2023-07-08T05:04:13;95864.41;;;18.01;75.95
79075;BME280;68476;42.710;23.388;2023-07-08T05:06:39;95865.88;;;18.20;75.66
79075;BME280;68476;42.710;23.388;2023-07-08T05:09:04;95873.31;;;18.24;74.77
79075;BME280;68476;42.710;23.388;2023-07-08T05:11:30;95878.56;;;18.21;75.23
79075;BME280;68476;42.710;23.388;2023-07-08T05:13:56;95879.91;;;18.08;75.29
79075;BME280;68476;42.710;23.388;2023-07-08T05:16:21;95873.00;;;18.10;75.45
79075;BME280;68476;42.710;23.388;2023-07-08T05:18:47;95868.59;;;18.04;75.60
79075;BME280;68476;42.710;23.388;2023-07-08T05:21:12;95876.13;;;18.40;74.80
79075;BME280;68476;42.710;23.388;2023-07-08T05:23:38;95885.78;;;18.42;74.02
79075;BME280;68476;42.710;23.388;2023-07-08T05:26:05;95878.88;;;18.35;74.21
79075;BME280;68476;42.710;23.388;2023-07-08T05:28:33;95881.94;;;18.38;73.92
79075;BME280;68476;42.710;23.388;2023-07-08T05:30:58;95887.69;;;18.26;73.48
79075;BME280;68476;42.710;23.388;2023-07-08T05:33:25;95877.81;;;18.41;74.31
79075;BME280;68476;42.710;23.388;2023-07-08T05:35:51;95882.00;;;18.59;73.17
79075;BME280;68476;42.710;23.388;2023-07-08T05:38:17;95878.16;;;18.70;72.93
79075;BME280;68476;42.710;23.388;2023-07-08T05:40:43;95879.53;;;18.73;72.05
79075;BME280;68476;42.710;23.388;2023-07-08T05:43:08;95903.00;;;18.70;72.59
79075;BME280;68476;42.710;23.388;2023-07-08T05:45:34;95881.47;;;18.77;71.97
79075;BME280;68476;42.710;23.388;2023-07-08T05:48:01;95897.53;;;18.96;71.24
79075;BME280;68476;42.710;23.388;2023-07-08T05:50:26;95903.00;;;18.91;71.35
79075;BME280;68476;42.710;23.388;2023-07-08T05:52:52;95901.13;;;18.97;71.30
79075;BME280;68476;42.710;23.388;2023-07-08T05:55:17;95888.69;;;19.51;70.10
79075;BME280;68476;42.710;23.388;2023-07-08T05:57:42;95896.94;;;19.92;68.94
79075;BME280;68476;42.710;23.388;2023-07-08T06:00:09;95901.91;;;19.80;68.78
79075;BME280;68476;42.710;23.388;2023-07-08T06:02:34;95908.28;;;19.70;69.47
79075;BME280;68476;42.710;23.388;2023-07-08T06:05:00;95903.06;;;19.53;69.65
79075;BME280;68476;42.710;23.388;2023-07-08T06:07:25;95908.31;;;19.34;69.74
79075;BME280;68476;42.710;23.388;2023-07-08T06:09:50;95900.53;;;19.67;68.51
79075;BME280;68476;42.710;23.388;2023-07-08T06:12:16;95897.81;;;19.46;68.54
79075;BME280;68476;42.710;23.388;2023-07-08T06:14:41;95901.97;;;19.18;69.33
79075;BME280;68476;42.710;23.388;2023-07-08T06:17:07;95907.50;;;19.18;69.93
79075;BME280;68476;42.710;23.388;2023-07-08T06:19:33;95896.19;;;19.24;69.43
79075;BME280;68476;42.710;23.388;2023-07-08T06:21:58;95911.09;;;19.49;68.78
79075;BME280;68476;42.710;23.388;2023-07-08T06:24:23;95917.72;;;19.38;68.55
79075;BME280;68476;42.710;23.388;2023-07-08T06:26:49;95915.78;;;19.33;68.31
79075;BME280;68476;42.710;23.388;2023-07-08T06:29:14;95915.78;;;19.38;67.70
79075;BME280;68476;42.710;23.388;2023-07-08T06:31:41;95924.06;;;19.69;66.68
79075;BME280;68476;42.710;23.388;2023-07-08T06:34:06;95911.56;;;19.77;65.12
79075;BME280;68476;42.710;23.388;2023-07-08T06:36:32;95905.94;;;20.34;63.73
79075;BME280;68476;42.710;23.388;2023-07-08T06:38:57;95915.97;;;20.04;64.66
79075;BME280;68476;42.710;23.388;2023-07-08T06:41:23;95906.06;;;19.82;65.58
79075;BME280;68476;42.710;23.388;2023-07-08T06:43:48;95905.50;;;19.80;65.06
79075;BME280;68476;42.710;23.388;2023-07-08T06:46:13;95912.44;;;19.93;63.85
79075;BME280;68476;42.710;23.388;2023-07-08T06:48:39;95907.97;;;19.97;63.51
79075;BME280;68476;42.710;23.388;2023-07-08T06:51:04;95921.56;;;19.73;64.43
79075;BME280;68476;42.710;23.388;2023-07-08T06:53:30;95916.28;;;19.77;64.85
79075;BME280;68476;42.710;23.388;2023-07-08T06:55:55;95919.59;;;19.84;64.50
79075;BME280;68476;42.710;23.388;2023-07-08T06:58:20;95917.97;;;19.93;64.25
79075;BME280;68476;42.710;23.388;2023-07-08T07:00:46;95919.22;;;20.32;63.67
79075;BME280;68476;42.710;23.388;2023-07-08T07:03:12;95908.66;;;20.39;62.97
79075;BME280;68476;42.710;23.388;2023-07-08T07:05:38;95909.25;;;20.26;62.74
79075;BME280;68476;42.710;23.388;2023-07-08T07:08:04;95919.13;;;20.53;62.71
79075;BME280;68476;42.710;23.388;2023-07-08T07:10:30;95916.19;;;20.23;63.00
79075;BME280;68476;42.710;23.388;2023-07-08T07:15:21;95915.38;;;20.12;63.18
79075;BME280;68476;42.710;23.388;2023-07-08T07:17:46;95907.38;;;20.06;62.97
79075;BME280;68476;42.710;23.388;2023-07-08T07:20:12;95912.53;;;20.38;62.43
79075;BME280;68476;42.710;23.388;2023-07-08T07:22:37;95907.19;;;20.57;61.71
79075;BME280;68476;42.710;23.388;2023-07-08T07:25:04;95922.88;;;20.72;61.98
79075;BME280;68476;42.710;23.388;2023-07-08T07:27:29;95914.34;;;19.98;62.64
79075;BME280;68476;42.710;23.388;2023-07-08T07:29:56;95929.56;;;20.00;63.35
79075;BME280;68476;42.710;23.388;2023-07-08T07:32:24;95927.25;;;20.23;62.90
79075;BME280;68476;42.710;23.388;2023-07-08T07:34:49;95916.53;;;20.06;63.19
79075;BME280;68476;42.710;23.388;2023-07-08T07:37:18;95929.81;;;20.70;61.81
79075;BME280;68476;42.710;23.388;2023-07-08T07:39:44;95928.63;;;20.91;61.20
79075;BME280;68476;42.710;23.388;2023-07-08T07:42:11;95919.38;;;20.56;61.48
79075;BME280;68476;42.710;23.388;2023-07-08T07:44:37;95923.13;;;20.86;60.17
79075;BME280;68476;42.710;23.388;2023-07-08T07:47:07;95919.56;;;20.81;59.70
79075;BME280;68476;42.710;23.388;2023-07-08T07:49:33;95933.66;;;21.24;58.14
79075;BME280;68476;42.710;23.388;2023-07-08T07:51:59;95934.72;;;20.93;59.24
79075;BME280;68476;42.710;23.388;2023-07-08T07:54:24;95922.72;;;21.43;58.78
79075;BME280;68476;42.710;23.388;2023-07-08T07:56:50;95919.44;;;20.96;59.79
79075;BME280;68476;42.710;23.388;2023-07-08T07:59:16;95946.97;;;20.77;60.28
79075;BME280;68476;42.710;23.388;2023-07-08T08:01:41;95933.75;;;21.14;59.63
79075;BME280;68476;42.710;23.388;2023-07-08T08:04:09;95933.59;;;21.34;59.21
79075;BME280;68476;42.710;23.388;2023-07-08T08:06:34;95935.41;;;21.84;57.53
79075;BME280;68476;42.710;23.388;2023-07-08T08:09:00;95944.44;;;21.31;59.04
79075;BME280;68476;42.710;23.388;2023-07-08T08:11:25;95943.66;;;21.20;59.14
79075;BME280;68476;42.710;23.388;2023-07-08T08:13:52;95941.34;;;20.98;59.10
79075;BME280;68476;42.710;23.388;2023-07-08T08:16:17;95943.25;;;20.97;59.67
79075;BME280;68476;42.710;23.388;2023-07-08T08:18:43;95960.56;;;20.78;60.54
79075;BME280;68476;42.710;23.388;2023-07-08T08:21:08;95956.94;;;20.78;59.72
79075;BME280;68476;42.710;23.388;2023-07-08T08:23:33;95946.03;;;20.97;59.07
79075;BME280;68476;42.710;23.388;2023-07-08T08:25:59;95945.81;;;20.88;59.27
79075;BME280;68476;42.710;23.388;2023-07-08T08:28:24;95940.25;;;20.93;58.97
79075;BME280;68476;42.710;23.388;2023-07-08T08:30:50;95951.69;;;20.76;59.58
79075;BME280;68476;42.710;23.388;2023-07-08T08:33:16;95948.56;;;20.88;59.82
79075;BME280;68476;42.710;23.388;2023-07-08T08:35:43;95948.69;;;20.62;59.21
79075;BME280;68476;42.710;23.388;2023-07-08T08:38:08;95941.41;;;20.82;59.29
79075;BME280;68476;42.710;23.388;2023-07-08T08:40:33;95931.38;;;20.91;58.60
79075;BME280;68476;42.710;23.388;2023-07-08T08:43:02;95931.56;;;21.05;58.27
79075;BME280;68476;42.710;23.388;2023-07-08T08:45:34;95936.53;;;21.14;58.56
79075;BME280;68476;42.710;23.388;2023-07-08T08:48:03;95939.75;;;21.95;56.59
79075;BME280;68476;42.710;23.388;2023-07-08T08:50:51;95928.69;;;22.39;56.40
79075;BME280;68476;42.710;23.388;2023-07-08T08:53:18;95935.44;;;22.08;55.48
79075;BME280;68476;42.710;23.388;2023-07-08T08:55:55;95936.91;;;22.25;54.40
79075;BME280;68476;42.710;23.388;2023-07-08T09:01:02;95930.47;;;22.78;53.93
79075;BME280;68476;42.710;23.388;2023-07-08T09:06:32;95925.56;;;22.70;53.36
79075;BME280;68476;42.710;23.388;2023-07-08T09:09:27;95937.34;;;22.37;54.83
79075;BME280;68476;42.710;23.388;2023-07-08T09:12:08;95929.47;;;22.20;55.36
79075;BME280;68476;42.710;23.388;2023-07-08T09:14:36;95919.91;;;22.31;55.51
79075;BME280;68476;42.710;23.388;2023-07-08T09:19:52;95916.34;;;22.74;53.60
79075;BME280;68476;42.710;23.388;2023-07-08T09:22:31;95911.56;;;22.80;53.52
79075;BME280;68476;42.710;23.388;2023-07-08T09:27:37;95902.75;;;23.11;53.87
79075;BME280;68476;42.710;23.388;2023-07-08T09:30:03;95897.78;;;22.89;52.21
79075;BME280;68476;42.710;23.388;2023-07-08T09:32:28;95890.72;;;22.97;52.33
79075;BME280;68476;42.710;23.388;2023-07-08T09:35:04;95902.47;;;22.74;53.15
79075;BME280;68476;42.710;23.388;2023-07-08T09:37:32;95895.16;;;22.98;52.37
79075;BME280;68476;42.710;23.388;2023-07-08T09:39:59;95904.47;;;22.69;52.03
79075;BME280;68476;42.710;23.388;2023-07-08T09:42:30;95912.81;;;22.69;52.18
79075;BME280;68476;42.710;23.388;2023-07-08T09:45:02;95888.69;;;22.83;52.21
79075;BME280;68476;42.710;23.388;2023-07-08T09:47:33;95881.75;;;22.86;52.07
79075;BME280;68476;42.710;23.388;2023-07-08T09:50:00;95878.78;;;23.15;51.48
79075;BME280;68476;42.710;23.388;2023-07-08T09:52:29;95881.31;;;23.12;53.18
79075;BME280;68476;42.710;23.388;2023-07-08T09:54:54;95872.56;;;23.04;52.09
79075;BME280;68476;42.710;23.388;2023-07-08T09:57:28;95883.47;;;23.01;51.88
79075;BME280;68476;42.710;23.388;2023-07-08T09:59:59;95874.16;;;22.91;51.66
79075;BME280;68476;42.710;23.388;2023-07-08T10:02:44;95884.16;;;22.92;51.97
79075;BME280;68476;42.710;23.388;2023-07-08T10:05:20;95863.16;;;23.52;51.26
79075;BME280;68476;42.710;23.388;2023-07-08T10:07:47;95865.34;;;23.55;50.30
79075;BME280;68476;42.710;23.388;2023-07-08T10:10:16;95863.50;;;23.65;50.50
79075;BME280;68476;42.710;23.388;2023-07-08T10:13:00;95864.00;;;24.00;50.43
79075;BME280;68476;42.710;23.388;2023-07-08T10:15:33;95865.28;;;23.28;51.01
79075;BME280;68476;42.710;23.388;2023-07-08T10:18:01;95849.44;;;24.45;48.56
79075;BME280;68476;42.710;23.388;2023-07-08T10:23:40;95852.16;;;23.61;50.12
79075;BME280;68476;42.710;23.388;2023-07-08T10:26:30;95858.72;;;25.05;47.64
79075;BME280;68476;42.710;23.388;2023-07-08T10:29:18;95849.72;;;24.57;47.82
79075;BME280;68476;42.710;23.388;2023-07-08T10:34:50;95849.75;;;24.94;47.56
79075;BME280;68476;42.710;23.388;2023-07-08T10:53:42;95832.31;;;27.30;39.07
79075;BME280;68476;42.710;23.388;2023-07-08T11:07:12;95808.06;;;29.53;34.71
79075;BME280;68476;42.710;23.388;2023-07-08T11:12:23;95818.50;;;29.98;34.45
79075;BME280;68476;42.710;23.388;2023-07-08T11:14:59;95824.94;;;29.65;34.62
79075;BME280;68476;42.710;23.388;2023-07-08T11:17:28;95802.41;;;31.39;32.17
79075;BME280;68476;42.710;23.388;2023-07-08T11:20:13;95803.53;;;30.19;33.38
79075;BME280;68476;42.710;23.388;2023-07-08T11:22:47;95794.28;;;29.05;35.03
79075;BME280;68476;42.710;23.388;2023-07-08T11:25:20;95794.97;;;26.65;39.50
79075;BME280;68476;42.710;23.388;2023-07-08T11:27:48;95796.16;;;29.01;35.18
79075;BME280;68476;42.710;23.388;2023-07-08T11:30:17;95787.06;;;26.75;38.59
79075;BME280;68476;42.710;23.388;2023-07-08T11:32:48;95782.50;;;28.79;35.61
79075;BME280;68476;42.710;23.388;2023-07-08T11:35:27;95795.25;;;25.56;42.26
79075;BME280;68476;42.710;23.388;2023-07-08T11:37:54;95792.53;;;28.50;36.23
79075;BME280;68476;42.710;23.388;2023-07-08T11:40:22;95791.28;;;29.11;34.74
79075;BME280;68476;42.710;23.388;2023-07-08T11:42:50;95791.88;;;26.84;38.98
79075;BME280;68476;42.710;23.388;2023-07-08T11:47:50;95802.19;;;28.61;35.61
79075;BME280;68476;42.710;23.388;2023-07-08T11:53:00;95795.53;;;25.77;41.58
79075;BME280;68476;42.710;23.388;2023-07-08T11:58:19;95799.28;;;29.00;34.71
79075;BME280;68476;42.710;23.388;2023-07-08T12:00:54;95804.16;;;25.98;41.49
79075;BME280;68476;42.710;23.388;2023-07-08T12:03:23;95800.53;;;25.58;41.41
79075;BME280;68476;42.710;23.388;2023-07-08T12:05:56;95785.25;;;25.32;42.61
79075;BME280;68476;42.710;23.388;2023-07-08T12:08:33;95813.78;;;25.52;42.34
79075;BME280;68476;42.710;23.388;2023-07-08T12:10:59;95788.06;;;26.62;40.67
79075;BME280;68476;42.710;23.388;2023-07-08T12:13:25;95782.59;;;27.53;38.44
79075;BME280;68476;42.710;23.388;2023-07-08T12:15:51;95780.66;;;25.99;41.01
79075;BME280;68476;42.710;23.388;2023-07-08T12:18:24;95779.69;;;28.27;37.22
79075;BME280;68476;42.710;23.388;2023-07-08T12:20:56;95779.41;;;30.68;32.93
79075;BME280;68476;42.710;23.388;2023-07-08T12:23:24;95787.88;;;29.85;33.95
79075;BME280;68476;42.710;23.388;2023-07-08T12:25:50;95777.66;;;30.01;33.93
79075;BME280;68476;42.710;23.388;2023-07-08T12:28:16;95783.25;;;28.58;36.03
79075;BME280;68476;42.710;23.388;2023-07-08T12:30:44;95767.03;;;26.73;39.91
79075;BME280;68476;42.710;23.388;2023-07-08T12:33:17;95769.69;;;26.03;41.55
79075;BME280;68476;42.710;23.388;2023-07-08T12:35:44;95766.53;;;26.45;40.80
79075;BME280;68476;42.710;23.388;2023-07-08T12:40:52;95764.50;;;30.30;34.08
79075;BME280;68476;42.710;23.388;2023-07-08T12:43:18;95773.81;;;29.26;35.12
79075;BME280;68476;42.710;23.388;2023-07-08T12:45:44;95767.56;;;29.42;35.46
79075;BME280;68476;42.710;23.388;2023-07-08T12:48:09;95763.59;;;30.26;32.94
79075;BME280;68476;42.710;23.388;2023-07-08T12:50:35;95763.03;;;29.16;34.80
79075;BME280;68476;42.710;23.388;2023-07-08T12:53:00;95756.69;;;27.74;38.10
79075;BME280;68476;42.710;23.388;2023-07-08T12:55:41;95761.25;;;26.70;40.17
79075;BME280;68476;42.710;23.388;2023-07-08T12:58:19;95751.41;;;28.63;36.48
79075;BME280;68476;42.710;23.388;2023-07-08T13:00:48;95757.97;;;28.67;35.89
79075;BME280;68476;42.710;23.388;2023-07-08T13:03:16;95760.78;;;30.63;32.57
79075;BME280;68476;42.710;23.388;2023-07-08T13:05:44;95760.09;;;29.46;33.93
79075;BME280;68476;42.710;23.388;2023-07-08T13:08:12;95756.66;;;30.61;33.29
79075;BME280;68476;42.710;23.388;2023-07-08T13:10:39;95760.94;;;27.80;37.11
79075;BME280;68476;42.710;23.388;2023-07-08T13:13:10;95767.41;;;28.02;37.10
79075;BME280;68476;42.710;23.388;2023-07-08T13:15:39;95763.22;;;30.52;32.77
79075;BME280;68476;42.710;23.388;2023-07-08T13:18:15;95767.22;;;30.02;33.94
79075;BME280;68476;42.710;23.388;2023-07-08T13:20:41;95764.50;;;29.13;35.94
79075;BME280;68476;42.710;23.388;2023-07-08T13:23:08;95759.47;;;29.06;35.11
79075;BME280;68476;42.710;23.388;2023-07-08T13:25:37;95778.31;;;26.33;40.36
79075;BME280;68476;42.710;23.388;2023-07-08T13:30:50;95772.59;;;25.26;42.83
79075;BME280;68476;42.710;23.388;2023-07-08T13:33:17;95776.31;;;24.76;43.29
79075;BME280;68476;42.710;23.388;2023-07-08T13:35:43;95771.09;;;24.74;43.85
79075;BME280;68476;42.710;23.388;2023-07-08T13:38:20;95784.59;;;24.67;44.25
79075;BME280;68476;42.710;23.388;2023-07-08T13:40:49;95776.69;;;24.46;44.74
79075;BME280;68476;42.710;23.388;2023-07-08T13:43:23;95776.97;;;24.59;44.61
79075;BME280;68476;42.710;23.388;2023-07-08T13:45:49;95770.47;;;24.77;44.02
79075;BME280;68476;42.710;23.388;2023-07-08T13:48:30;95780.13;;;27.43;37.94
79075;BME280;68476;42.710;23.388;2023-07-08T13:58:46;95762.34;;;27.57;37.78
79075;BME280;68476;42.710;23.388;2023-07-08T14:01:24;95767.25;;;27.68;37.94
79075;BME280;68476;42.710;23.388;2023-07-08T14:03:51;95765.03;;;27.27;38.99
79075;BME280;68476;42.710;23.388;2023-07-08T14:06:26;95769.09;;;27.47;38.58
79075;BME280;68476;42.710;23.388;2023-07-08T14:09:03;95764.75;;;27.02;39.72
79075;BME280;68476;42.710;23.388;2023-07-08T14:11:31;95778.53;;;26.54;40.70